sensor_id;sensor_type;location;lat;lon;timestamp;pressure;altitude;pressure_sealevel;temperature;humidity
65276;BME280;51875;49.994;14.052;2023-07-31T00:01:10;98225.72;;;13.19;100.00
65276;BME280;51875;49.994;14.052;2023-07-31T00:02:26;98221.50;;;13.14;100.00
65276;BME280;51875;49.994;14.052;2023-07-31T00:03:41;98215.34;;;13.16;100.00
65276;BME280;51875;49.994;14.052;2023-07-31T00:04:57;98218.59;;;13.00;100.00
65276;BME280;51875;49.994;14.052;2023-07-31T00:06:13;98219.50;;;12.99;100.00
65276;BME280;51875;49.994;14.052;2023-07-31T00:07:28;98223.19;;;12.95;100.00
65276;BME280;51875;49.994;14.052;2023-07-31T00:08:44;98220.50;;;12.96;100.00
65276;BME280;51875;49.994;14.052;2023-07-31T00:09:59;98213.22;;;13.03;100.00
65276;BME280;51875;49.994;14.052;2023-07-31T00:11:15;98215.72;;;13.06;100.00
65276;BME280;51875;49.994;14.052;2023-07-31T00:12:31;98213.13;;;13.05;100.00
65276;BME280;51875;49.994;14.052;2023-07-31T00:13:46;98218.59;;;13.00;100.00
65276;BME280;51875;49.994;14.052;2023-07-31T00:15:02;98213.81;;;13.10;100.00
65276;BME280;51875;49.994;14.052;2023-07-31T00:16:18;98219.81;;;13.13;100.00
65276;BME280;51875;49.994;14.052;2023-07-31T00:17:33;98219.66;;;13.17;100.00
65276;BME280;51875;49.994;14.052;2023-07-31T00:18:49;98225.13;;;13.12;100.00
65276;BME280;51875;49.994;14.052;2023-07-31T00:20:05;98217.88;;;13.17;100.00
65276;BME280;51875;49.994;14.052;2023-07-31T00:21:20;98224.97;;;13.15;100.00
65276;BME280;51875;49.994;14.052;2023-07-31T00:22:36;98219.63;;;12.96;100.00
65276;BME280;51875;49.994;14.052;2023-07-31T00:23:51;98227.53;;;12.74;100.00
65276;BME280;51875;49.994;14.052;2023-07-31T00:25:07;98224.72;;;12.78;100.00
65276;BME280;51875;49.994;14.052;2023-07-31T00:26:23;98224.59;;;12.81;100.00
65276;BME280;51875;49.994;14.052;2023-07-31T00:27:38;98226.50;;;12.78;100.00
65276;BME280;51875;49.994;14.052;2023-07-31T00:28:53;98218.91;;;12.70;100.00
65276;BME280;51875;49.994;14.052;2023-07-31T00:30:10;98221.63;;;12.68;100.00
65276;BME280;51875;49.994;14.052;2023-07-31T00:31:25;98219.75;;;12.72;100.00
65276;BME280;51875;49.994;14.052;2023-07-31T00:32:41;98226.13;;;12.65;100.00
65276;BME280;51875;49.994;14.052;2023-07-31T00:33:57;98220.94;;;12.63;100.00
65276;BME280;51875;49.994;14.052;2023-07-31T00:35:13;98221.53;;;12.70;100.00
65276;BME280;51875;49.994;14.052;2023-07-31T00:36:28;98229.19;;;12.76;100.00
65276;BME280;51875;49.994;14.052;2023-07-31T00:37:43;98215.97;;;13.00;100.00
65276;BME280;51875;49.994;14.052;2023-07-31T00:38:59;98218.34;;;13.06;100.00
65276;BME280;51875;49.994;14.052;2023-07-31T00:40:15;98221.16;;;13.02;100.00
65276;BME280;51875;49.994;14.052;2023-07-31T00:41:30;98223.31;;;12.92;100.00
65276;BME280;51875;49.994;14.052;2023-07-31T00:42:46;98224.88;;;12.96;100.00
65276;BME280;51875;49.994;14.052;2023-07-31T00:44:01;98227.16;;;13.05;100.00
65276;BME280;51875;49.994;14.052;2023-07-31T00:45:17;98229.84;;;12.81;100.00
65276;BME280;51875;49.994;14.052;2023-07-31T00:46:32;98224.72;;;12.78;100.00
65276;BME280;51875;49.994;14.052;2023-07-31T00:47:48;98228.53;;;12.93;100.00
65276;BME280;51875;49.994;14.052;2023-07-31T00:49:05;98225.47;;;12.82;100.00
65276;BME280;51875;49.994;14.052;2023-07-31T00:50:23;98231.25;;;12.90;100.00
65276;BME280;51875;49.994;14.052;2023-07-31T00:51:39;98228.06;;;13.04;100.00
65276;BME280;51875;49.994;14.052;2023-07-31T00:52:54;98227.16;;;13.05;100.00
65276;BME280;51875;49.994;14.052;2023-07-31T00:54:10;98225.25;;;13.09;100.00
65276;BME280;51875;49.994;14.052;2023-07-31T00:55:26;98222.31;;;13.17;100.00
65276;BME280;51875;49.994;14.052;2023-07-31T00:56:44;98222.34;;;13.15;100.00
65276;BME280;51875;49.994;14.052;2023-07-31T00:58:00;98230.44;;;13.31;100.00
65276;BME280;51875;49.994;14.052;2023-07-31T00:59:16;98222.56;;;13.31;100.00
65276;BME280;51875;49.994;14.052;2023-07-31T01:00:33;98218.03;;;13.35;100.00
65276;BME280;51875;49.994;14.052;2023-07-31T01:01:49;98225.97;;;13.33;100.00
65276;BME280;51875;49.994;14.052;2023-07-31T01:03:05;98222.44;;;13.13;100.00
65276;BME280;51875;49.994;14.052;2023-07-31T01:04:21;98214.75;;;13.09;100.00
65276;BME280;51875;49.994;14.052;2023-07-31T01:05:44;98225.63;;;12.99;100.00
65276;BME280;51875;49.994;14.052;2023-07-31T01:08:42;98223.03;;;12.77;100.00
65276;BME280;51875;49.994;14.052;2023-07-31T01:10:09;98222.09;;;12.78;100.00
65276;BME280;51875;49.994;14.052;2023-07-31T01:11:33;98218.25;;;12.65;100.00
65276;BME280;51875;49.994;14.052;2023-07-31T01:12:51;98221.31;;;12.76;100.00
65276;BME280;51875;49.994;14.052;2023-07-31T01:14:07;98224.38;;;12.88;100.00
65276;BME280;51875;49.994;14.052;2023-07-31T01:15:22;98215.63;;;12.87;100.00
65276;BME280;51875;49.994;14.052;2023-07-31T01:16:38;98217.81;;;12.76;100.00
65276;BME280;51875;49.994;14.052;2023-07-31T01:17:53;98209.75;;;12.80;100.00
65276;BME280;51875;49.994;14.052;2023-07-31T01:19:10;98212.38;;;12.80;100.00
65276;BME280;51875;49.994;14.052;2023-07-31T01:20:27;98214.13;;;13.02;100.00
65276;BME280;51875;49.994;14.052;2023-07-31T01:22:29;98213.81;;;13.10;100.00
65276;BME280;51875;49.994;14.052;2023-07-31T01:26:45;98202.94;;;12.97;100.00
65276;BME280;51875;49.994;14.052;2023-07-31T01:28:06;98209.53;;;13.07;100.00
65276;BME280;51875;49.994;14.052;2023-07-31T01:29:32;98202.56;;;13.06;100.00
65276;BME280;51875;49.994;14.052;2023-07-31T01:30:48;98202.91;;;12.98;100.00
65276;BME280;51875;49.994;14.052;2023-07-31T01:32:06;98199.16;;;13.04;100.00
65276;BME280;51875;49.994;14.052;2023-07-31T01:33:23;98199.97;;;13.27;100.00
65276;BME280;51875;49.994;14.052;2023-07-31T01:34:39;98201.19;;;13.18;100.00
65276;BME280;51875;49.994;14.052;2023-07-31T01:35:56;98198.19;;;13.07;100.00
65276;BME280;51875;49.994;14.052;2023-07-31T01:37:12;98202.44;;;12.89;100.00
65276;BME280;51875;49.994;14.052;2023-07-31T01:38:28;98197.97;;;12.91;100.00
65276;BME280;51875;49.994;14.052;2023-07-31T01:39:43;98198.28;;;12.83;100.00
65276;BME280;51875;49.994;14.052;2023-07-31T01:40:59;98183.66;;;12.76;100.00
65276;BME280;51875;49.994;14.052;2023-07-31T01:42:14;98194.13;;;12.98;100.00
65276;BME280;51875;49.994;14.052;2023-07-31T01:43:30;98190.59;;;12.99;100.00
65276;BME280;51875;49.994;14.052;2023-07-31T01:44:46;98195.59;;;13.05;100.00
65276;BME280;51875;49.994;14.052;2023-07-31T01:46:01;98188.81;;;12.79;100.00
65276;BME280;51875;49.994;14.052;2023-07-31T01:47:17;98188.56;;;12.85;100.00
65276;BME280;51875;49.994;14.052;2023-07-31T01:48:32;98185.19;;;12.81;100.00
65276;BME280;51875;49.994;14.052;2023-07-31T01:49:52;98192.50;;;12.95;100.00
65276;BME280;51875;49.994;14.052;2023-07-31T01:51:07;98188.88;;;12.77;100.00
65276;BME280;51875;49.994;14.052;2023-07-31T01:52:23;98180.44;;;12.69;100.00
65276;BME280;51875;49.994;14.052;2023-07-31T01:53:39;98181.47;;;12.87;100.00
65276;BME280;51875;49.994;14.052;2023-07-31T01:54:54;98183.84;;;12.93;100.00
65276;BME280;51875;49.994;14.052;2023-07-31T01:56:10;98178.19;;;12.82;100.00
65276;BME280;51875;49.994;14.052;2023-07-31T01:57:25;98181.41;;;12.89;100.00
65276;BME280;51875;49.994;14.052;2023-07-31T01:58:41;98179.38;;;12.95;100.00
65276;BME280;51875;49.994;14.052;2023-07-31T01:59:56;98180.06;;;12.99;100.00
65276;BME280;51875;49.994;14.052;2023-07-31T02:01:12;98176.03;;;12.92;100.00
65276;BME280;51875;49.994;14.052;2023-07-31T02:02:27;98173.66;;;12.85;100.00
65276;BME280;51875;49.994;14.052;2023-07-31T02:03:43;98185.47;;;12.96;100.00
65276;BME280;51875;49.994;14.052;2023-07-31T02:04:59;98181.22;;;12.93;100.00
65276;BME280;51875;49.994;14.052;2023-07-31T02:06:14;98176.75;;;12.95;100.00
65276;BME280;51875;49.994;14.052;2023-07-31T02:07:30;98176.81;;;12.94;100.00
65276;BME280;51875;49.994;14.052;2023-07-31T02:08:45;98183.03;;;12.91;100.00
65276;BME280;51875;49.994;14.052;2023-07-31T02:10:01;98175.41;;;12.85;100.00
65276;BME280;51875;49.994;14.052;2023-07-31T02:11:17;98181.34;;;12.68;100.00
65276;BME280;51875;49.994;14.052;2023-07-31T02:12:32;98171.13;;;12.62;100.00
65276;BME280;51875;49.994;14.052;2023-07-31T02:13:48;98169.94;;;12.69;100.00
65276;BME280;51875;49.994;14.052;2023-07-31T02:15:04;98174.25;;;12.70;100.00
65276;BME280;51875;49.994;14.052;2023-07-31T02:16:20;98166.38;;;12.70;100.00
65276;BME280;51875;49.994;14.052;2023-07-31T02:17:35;98174.53;;;12.64;100.00
65276;BME280;51875;49.994;14.052;2023-07-31T02:18:51;98178.88;;;12.65;100.00
65276;BME280;51875;49.994;14.052;2023-07-31T02:20:07;98171.72;;;12.68;100.00
65276;BME280;51875;49.994;14.052;2023-07-31T02:21:23;98175.97;;;12.71;100.00
65276;BME280;51875;49.994;14.052;2023-07-31T02:22:38;98168.81;;;12.75;100.00
65276;BME280;51875;49.994;14.052;2023-07-31T02:23:54;98171.25;;;12.59;100.00
65276;BME280;51875;49.994;14.052;2023-07-31T02:25:09;98166.38;;;12.70;100.00
65276;BME280;51875;49.994;14.052;2023-07-31T02:26:25;98166.19;;;12.75;100.00
65276;BME280;51875;49.994;14.052;2023-07-31T02:27:40;98174.09;;;12.75;100.00
65276;BME280;51875;49.994;14.052;2023-07-31T02:28:56;98175.97;;;12.71;100.00
65276;BME280;51875;49.994;14.052;2023-07-31T02:30:12;98174.22;;;12.71;100.00
65276;BME280;51875;49.994;14.052;2023-07-31T02:31:27;98174.66;;;12.61;100.00
65276;BME280;51875;49.994;14.052;2023-07-31T02:32:43;98170.72;;;12.71;100.00
65276;BME280;51875;49.994;14.052;2023-07-31T02:33:58;98175.88;;;12.74;100.00
65276;BME280;51875;49.994;14.052;2023-07-31T02:35:14;98173.34;;;12.71;100.00
65276;BME280;51875;49.994;14.052;2023-07-31T02:36:30;98178.06;;;12.63;100.00
65276;BME280;51875;49.994;14.052;2023-07-31T02:37:46;98170.44;;;12.56;100.00
65276;BME280;51875;49.994;14.052;2023-07-31T02:39:01;98167.88;;;12.55;100.00
65276;BME280;51875;49.994;14.052;2023-07-31T02:40:17;98171.78;;;12.67;100.00
65276;BME280;51875;49.994;14.052;2023-07-31T02:41:33;98169.31;;;12.62;100.00
65276;BME280;51875;49.994;14.052;2023-07-31T02:42:48;98161.53;;;12.61;100.00
65276;BME280;51875;49.994;14.052;2023-07-31T02:44:04;98166.53;;;12.67;100.00
65276;BME280;51875;49.994;14.052;2023-07-31T02:45:19;98181.19;;;12.50;100.00
65276;BME280;51875;49.994;14.052;2023-07-31T02:46:35;98166.22;;;12.52;100.00
65276;BME280;51875;49.994;14.052;2023-07-31T02:47:50;98172.34;;;12.31;100.00
65276;BME280;51875;49.994;14.052;2023-07-31T02:49:06;98168.91;;;12.28;100.00
65276;BME280;51875;49.994;14.052;2023-07-31T02:50:21;98169.91;;;12.48;100.00
65276;BME280;51875;49.994;14.052;2023-07-31T02:51:37;98172.75;;;12.42;100.00
65276;BME280;51875;49.994;14.052;2023-07-31T02:52:52;98176.88;;;12.49;100.00
65276;BME280;51875;49.994;14.052;2023-07-31T02:54:08;98179.22;;;12.55;100.00
65276;BME280;51875;49.994;14.052;2023-07-31T02:55:24;98173.28;;;12.73;100.00
65276;BME280;51875;49.994;14.052;2023-07-31T02:56:39;98167.91;;;12.76;100.00
65276;BME280;51875;49.994;14.052;2023-07-31T02:57:54;98167.59;;;12.83;100.00
65276;BME280;51875;49.994;14.052;2023-07-31T02:59:10;98169.47;;;12.59;100.00
65276;BME280;51875;49.994;14.052;2023-07-31T03:00:26;98172.38;;;12.74;100.00
65276;BME280;51875;49.994;14.052;2023-07-31T03:01:41;98175.59;;;12.60;100.00
65276;BME280;51875;49.994;14.052;2023-07-31T03:02:57;98165.44;;;12.50;100.00
65276;BME280;51875;49.994;14.052;2023-07-31T03:04:12;98174.47;;;12.43;100.00
65276;BME280;51875;49.994;14.052;2023-07-31T03:05:28;98170.47;;;12.77;100.00
65276;BME280;51875;49.994;14.052;2023-07-31T03:06:43;98171.03;;;12.85;100.00
65276;BME280;51875;49.994;14.052;2023-07-31T03:07:59;98164.41;;;12.97;100.00
65276;BME280;51875;49.994;14.052;2023-07-31T03:09:14;98167.47;;;13.07;100.00
65276;BME280;51875;49.994;14.052;2023-07-31T03:10:30;98166.84;;;13.02;100.00
65276;BME280;51875;49.994;14.052;2023-07-31T03:11:46;98169.19;;;13.08;100.00
65276;BME280;51875;49.994;14.052;2023-07-31T03:13:01;98166.06;;;13.00;100.00
65276;BME280;51875;49.994;14.052;2023-07-31T03:14:17;98173.94;;;13.00;100.00
65276;BME280;51875;49.994;14.052;2023-07-31T03:15:32;98164.19;;;12.81;100.00
65276;BME280;51875;49.994;14.052;2023-07-31T03:16:48;98164.41;;;12.97;100.00
65276;BME280;51875;49.994;14.052;2023-07-31T03:18:04;98159.72;;;12.83;100.00
65276;BME280;51875;49.994;14.052;2023-07-31T03:19:19;98158.00;;;12.82;100.00
65276;BME280;51875;49.994;14.052;2023-07-31T03:20:35;98160.03;;;12.76;100.00
65276;BME280;51875;49.994;14.052;2023-07-31T03:21:50;98159.72;;;12.83;100.00
65276;BME280;51875;49.994;14.052;2023-07-31T03:23:06;98163.84;;;12.89;100.00
65276;BME280;51875;49.994;14.052;2023-07-31T03:24:21;98151.50;;;12.70;100.00
65276;BME280;51875;49.994;14.052;2023-07-31T03:25:37;98157.34;;;12.77;100.00
65276;BME280;51875;49.994;14.052;2023-07-31T03:26:52;98149.75;;;12.92;100.00
65276;BME280;51875;49.994;14.052;2023-07-31T03:28:08;98150.63;;;12.92;100.00
65276;BME280;51875;49.994;14.052;2023-07-31T03:29:23;98156.25;;;13.04;100.00
65276;BME280;51875;49.994;14.052;2023-07-31T03:30:39;98160.44;;;12.87;100.00
65276;BME280;51875;49.994;14.052;2023-07-31T03:31:55;98165.84;;;12.84;100.00
65276;BME280;51875;49.994;14.052;2023-07-31T03:33:10;98164.31;;;12.78;100.00
65276;BME280;51875;49.994;14.052;2023-07-31T03:34:26;98162.00;;;12.91;100.00
65276;BME280;51875;49.994;14.052;2023-07-31T03:35:41;98161.59;;;13.02;100.00
65276;BME280;51875;49.994;14.052;2023-07-31T03:36:58;98167.94;;;13.17;100.00
65276;BME280;51875;49.994;14.052;2023-07-31T03:38:13;98168.03;;;13.16;100.00
65276;BME280;51875;49.994;14.052;2023-07-31T03:39:29;98166.75;;;13.24;100.00
65276;BME280;51875;49.994;14.052;2023-07-31T03:40:44;98166.69;;;13.26;100.00
65276;BME280;51875;49.994;14.052;2023-07-31T03:42:00;98166.28;;;13.35;100.00
65276;BME280;51875;49.994;14.052;2023-07-31T03:43:15;98165.94;;;13.45;100.00
65276;BME280;51875;49.994;14.052;2023-07-31T03:44:31;98160.88;;;13.38;100.00
65276;BME280;51875;49.994;14.052;2023-07-31T03:45:46;98157.41;;;13.38;100.00
65276;BME280;51875;49.994;14.052;2023-07-31T03:47:02;98157.16;;;13.44;100.00
65276;BME280;51875;49.994;14.052;2023-07-31T03:48:18;98167.88;;;13.19;100.00
65276;BME280;51875;49.994;14.052;2023-07-31T03:49:33;98160.38;;;13.30;100.00
65276;BME280;51875;49.994;14.052;2023-07-31T03:50:49;98165.66;;;13.30;100.00
65276;BME280;51875;49.994;14.052;2023-07-31T03:52:04;98161.97;;;13.13;100.00
65276;BME280;51875;49.994;14.052;2023-07-31T03:53:20;98166.41;;;13.11;100.00
65276;BME280;51875;49.994;14.052;2023-07-31T03:54:35;98163.75;;;13.13;100.00
65276;BME280;51875;49.994;14.052;2023-07-31T03:55:51;98161.50;;;13.24;100.00
65276;BME280;51875;49.994;14.052;2023-07-31T03:57:07;98163.16;;;13.27;100.00
65276;BME280;51875;49.994;14.052;2023-07-31T03:58:22;98168.63;;;13.22;100.00
65276;BME280;51875;49.994;14.052;2023-07-31T03:59:38;98159.72;;;13.25;100.00
65276;BME280;51875;49.994;14.052;2023-07-31T04:00:54;98163.75;;;13.13;100.00
65276;BME280;51875;49.994;14.052;2023-07-31T04:02:10;98160.38;;;13.09;100.00
65276;BME280;51875;49.994;14.052;2023-07-31T04:03:25;98163.56;;;13.18;100.00
65276;BME280;51875;49.994;14.052;2023-07-31T04:04:41;98155.06;;;13.11;100.00
65276;BME280;51875;49.994;14.052;2023-07-31T04:05:56;98157.75;;;13.09;100.00
65276;BME280;51875;49.994;14.052;2023-07-31T04:07:12;98158.63;;;13.10;100.00
65276;BME280;51875;49.994;14.052;2023-07-31T04:08:27;98152.75;;;13.24;100.00
65276;BME280;51875;49.994;14.052;2023-07-31T04:09:43;98146.91;;;13.17;100.00
65276;BME280;51875;49.994;14.052;2023-07-31T04:10:59;98149.63;;;13.16;100.00
65276;BME280;51875;49.994;14.052;2023-07-31T04:12:14;98152.91;;;13.21;100.00
65276;BME280;51875;49.994;14.052;2023-07-31T04:13:30;98150.06;;;13.25;100.00
65276;BME280;51875;49.994;14.052;2023-07-31T04:14:45;98152.66;;;13.27;100.00
65276;BME280;51875;49.994;14.052;2023-07-31T04:16:01;98151.78;;;13.26;100.00
65276;BME280;51875;49.994;14.052;2023-07-31T04:17:19;98150.84;;;13.27;100.00
65276;BME280;51875;49.994;14.052;2023-07-31T04:18:35;98151.03;;;13.23;100.00
65276;BME280;51875;49.994;14.052;2023-07-31T04:19:51;98149.19;;;13.25;100.00
65276;BME280;51875;49.994;14.052;2023-07-31T04:21:06;98145.19;;;13.16;100.00
65276;BME280;51875;49.994;14.052;2023-07-31T04:22:21;98140.94;;;13.13;100.00
65276;BME280;51875;49.994;14.052;2023-07-31T04:23:38;98150.38;;;12.97;100.00
65276;BME280;51875;49.994;14.052;2023-07-31T04:24:53;98150.66;;;13.11;100.00
65276;BME280;51875;49.994;14.052;2023-07-31T04:26:08;98146.00;;;12.97;100.00
65276;BME280;51875;49.994;14.052;2023-07-31T04:27:24;98148.63;;;12.97;100.00
65276;BME280;51875;49.994;14.052;2023-07-31T04:28:40;98145.63;;;13.07;100.00
65276;BME280;51875;49.994;14.052;2023-07-31T04:29:55;98146.00;;;12.97;100.00
65276;BME280;51875;49.994;14.052;2023-07-31T04:31:11;98146.59;;;13.04;100.00
65276;BME280;51875;49.994;14.052;2023-07-31T04:32:26;98141.47;;;13.01;100.00
65276;BME280;51875;49.994;14.052;2023-07-31T04:33:42;98141.06;;;13.10;100.00
65276;BME280;51875;49.994;14.052;2023-07-31T04:34:58;98143.50;;;13.15;100.00
65276;BME280;51875;49.994;14.052;2023-07-31T04:36:13;98143.34;;;13.18;100.00
65276;BME280;51875;49.994;14.052;2023-07-31T04:37:29;98144.09;;;13.22;100.00
65276;BME280;51875;49.994;14.052;2023-07-31T04:38:44;98148.06;;;13.31;100.00
65276;BME280;51875;49.994;14.052;2023-07-31T04:40:00;98143.16;;;13.23;100.00
65276;BME280;51875;49.994;14.052;2023-07-31T04:41:15;98142.31;;;13.22;100.00
65276;BME280;51875;49.994;14.052;2023-07-31T04:42:31;98135.84;;;13.30;100.00
65276;BME280;51875;49.994;14.052;2023-07-31T04:43:47;98140.34;;;13.27;100.00
65276;BME280;51875;49.994;14.052;2023-07-31T04:45:02;98142.13;;;13.27;100.00
65276;BME280;51875;49.994;14.052;2023-07-31T04:46:18;98142.75;;;13.32;100.00
65276;BME280;51875;49.994;14.052;2023-07-31T04:47:33;98132.97;;;13.36;100.00
65276;BME280;51875;49.994;14.052;2023-07-31T04:48:49;98136.31;;;13.39;100.00
65276;BME280;51875;49.994;14.052;2023-07-31T04:50:05;98138.94;;;13.39;100.00
65276;BME280;51875;49.994;14.052;2023-07-31T04:51:21;98132.13;;;13.56;100.00
65276;BME280;51875;49.994;14.052;2023-07-31T04:52:36;98137.09;;;13.62;100.00
65276;BME280;51875;49.994;14.052;2023-07-31T04:53:52;98139.94;;;13.77;100.00
65276;BME280;51875;49.994;14.052;2023-07-31T04:55:08;98141.06;;;13.71;100.00
65276;BME280;51875;49.994;14.052;2023-07-31T04:56:23;98140.16;;;13.72;100.00
65276;BME280;51875;49.994;14.052;2023-07-31T04:57:39;98136.59;;;13.73;100.00
65276;BME280;51875;49.994;14.052;2023-07-31T04:58:54;98141.72;;;13.76;100.00
65276;BME280;51875;49.994;14.052;2023-07-31T05:00:10;98138.19;;;13.77;100.00
65276;BME280;51875;49.994;14.052;2023-07-31T05:01:26;98140.78;;;13.96;100.00
65276;BME280;51875;49.994;14.052;2023-07-31T05:02:41;98132.63;;;14.03;100.00
65276;BME280;51875;49.994;14.052;2023-07-31T05:03:57;98137.81;;;14.04;100.00
65276;BME280;51875;49.994;14.052;2023-07-31T05:05:13;98137.56;;;14.09;100.00
65276;BME280;51875;49.994;14.052;2023-07-31T05:06:28;98137.16;;;14.18;100.00
65276;BME280;51875;49.994;14.052;2023-07-31T05:07:44;98138.06;;;14.17;100.00
65276;BME280;51875;49.994;14.052;2023-07-31T05:08:59;98141.78;;;14.13;100.00
65276;BME280;51875;49.994;14.052;2023-07-31T05:10:15;98141.34;;;14.22;100.00
65276;BME280;51875;49.994;14.052;2023-07-31T05:11:30;98135.94;;;14.25;100.00
65276;BME280;51875;49.994;14.052;2023-07-31T05:12:46;98141.66;;;14.34;100.00
65276;BME280;51875;49.994;14.052;2023-07-31T05:14:02;98142.81;;;14.28;100.00
65276;BME280;51875;49.994;14.052;2023-07-31T05:15:17;98146.97;;;14.51;100.00
65276;BME280;51875;49.994;14.052;2023-07-31T05:16:33;98136.22;;;14.56;100.00
65276;BME280;51875;49.994;14.052;2023-07-31T05:17:48;98139.34;;;14.64;100.00
65276;BME280;51875;49.994;14.052;2023-07-31T05:19:04;98142.44;;;14.73;100.00
65276;BME280;51875;49.994;14.052;2023-07-31T05:20:20;98129.31;;;14.90;100.00
65276;BME280;51875;49.994;14.052;2023-07-31T05:21:36;98126.72;;;15.06;100.00
65276;BME280;51875;49.994;14.052;2023-07-31T05:22:51;98129.22;;;15.09;100.00
65276;BME280;51875;49.994;14.052;2023-07-31T05:24:07;98123.78;;;15.13;100.00
65276;BME280;51875;49.994;14.052;2023-07-31T05:25:23;98135.56;;;15.23;100.00
65276;BME280;51875;49.994;14.052;2023-07-31T05:26:38;98125.31;;;15.17;100.00
65276;BME280;51875;49.994;14.052;2023-07-31T05:27:54;98133.44;;;15.12;100.00
65276;BME280;51875;49.994;14.052;2023-07-31T05:29:09;98134.63;;;15.24;100.00
65276;BME280;51875;49.994;14.052;2023-07-31T05:30:25;98135.69;;;15.37;100.00
65276;BME280;51875;49.994;14.052;2023-07-31T05:31:41;98132.38;;;15.50;100.00
65276;BME280;51875;49.994;14.052;2023-07-31T05:32:57;98130.66;;;15.49;100.00
65276;BME280;51875;49.994;14.052;2023-07-31T05:34:12;98135.63;;;15.55;100.00
65276;BME280;51875;49.994;14.052;2023-07-31T05:35:28;98130.94;;;15.60;100.00
65276;BME280;51875;49.994;14.052;2023-07-31T05:36:43;98122.28;;;15.58;100.00
65276;BME280;51875;49.994;14.052;2023-07-31T05:37:59;98127.72;;;15.55;100.00
65276;BME280;51875;49.994;14.052;2023-07-31T05:39:15;98129.53;;;15.71;100.00
65276;BME280;51875;49.994;14.052;2023-07-31T05:40:32;98133.81;;;15.89;100.00
65276;BME280;51875;49.994;14.052;2023-07-31T05:41:48;98126.91;;;15.87;100.00
65276;BME280;51875;49.994;14.052;2023-07-31T05:43:04;98133.69;;;15.92;100.00
65276;BME280;51875;49.994;14.052;2023-07-31T05:44:21;98135.53;;;15.90;100.00
65276;BME280;51875;49.994;14.052;2023-07-31T05:45:37;98130.44;;;16.03;100.00
65276;BME280;51875;49.994;14.052;2023-07-31T05:46:53;98134.09;;;16.01;100.00
65276;BME280;51875;49.994;14.052;2023-07-31T05:48:08;98138.53;;;16.00;100.00
65276;BME280;51875;49.994;14.052;2023-07-31T05:49:24;98131.63;;;15.98;100.00
65276;BME280;51875;49.994;14.052;2023-07-31T05:50:39;98134.53;;;16.09;100.00
65276;BME280;51875;49.994;14.052;2023-07-31T05:51:55;98133.41;;;16.13;100.00
65276;BME280;51875;49.994;14.052;2023-07-31T05:53:11;98137.84;;;16.13;100.00
65276;BME280;51875;49.994;14.052;2023-07-31T05:54:26;98135.88;;;16.16;100.00
65276;BME280;51875;49.994;14.052;2023-07-31T05:55:42;98127.63;;;16.22;100.00
65276;BME280;51875;49.994;14.052;2023-07-31T05:56:57;98128.22;;;16.28;100.00
65276;BME280;51875;49.994;14.052;2023-07-31T05:58:13;98117.88;;;16.39;100.00
65276;BME280;51875;49.994;14.052;2023-07-31T05:59:28;98114.13;;;16.43;100.00
65276;BME280;51875;49.994;14.052;2023-07-31T06:00:44;98122.06;;;16.43;100.00
65276;BME280;51875;49.994;14.052;2023-07-31T06:02:00;98116.81;;;16.58;100.00
65276;BME280;51875;49.994;14.052;2023-07-31T06:03:16;98113.34;;;16.57;100.00
65276;BME280;51875;49.994;14.052;2023-07-31T06:04:31;98114.94;;;16.60;100.00
65276;BME280;51875;49.994;14.052;2023-07-31T06:05:47;98106.41;;;16.71;100.00
65276;BME280;51875;49.994;14.052;2023-07-31T06:07:02;98107.25;;;16.71;100.00
65276;BME280;51875;49.994;14.052;2023-07-31T06:08:18;98116.09;;;16.70;100.00
65276;BME280;51875;49.994;14.052;2023-07-31T06:09:34;98107.66;;;16.33;100.00
65276;BME280;51875;49.994;14.052;2023-07-31T06:10:50;98108.09;;;16.41;100.00
65276;BME280;51875;49.994;14.052;2023-07-31T06:12:05;98106.81;;;16.48;100.00
65276;BME280;51875;49.994;14.052;2023-07-31T06:13:21;98105.53;;;16.70;100.00
65276;BME280;51875;49.994;14.052;2023-07-31T06:14:36;98109.38;;;16.95;100.00
65276;BME280;51875;49.994;14.052;2023-07-31T06:15:52;98113.81;;;16.94;100.00
65276;BME280;51875;49.994;14.052;2023-07-31T06:17:08;98096.78;;;17.15;100.00
65276;BME280;51875;49.994;14.052;2023-07-31T06:18:23;98099.22;;;17.03;100.00
65276;BME280;51875;49.994;14.052;2023-07-31T06:19:39;98101.13;;;17.16;100.00
65276;BME280;51875;49.994;14.052;2023-07-31T06:20:54;98101.72;;;17.21;100.00
65276;BME280;51875;49.994;14.052;2023-07-31T06:22:10;98105.84;;;17.25;100.00
65276;BME280;51875;49.994;14.052;2023-07-31T06:23:25;98102.75;;;17.18;100.00
65276;BME280;51875;49.994;14.052;2023-07-31T06:24:41;98113.41;;;17.17;100.00
65276;BME280;51875;49.994;14.052;2023-07-31T06:25:56;98102.81;;;17.17;100.00
65276;BME280;51875;49.994;14.052;2023-07-31T06:27:12;98099.81;;;17.38;100.00
65276;BME280;51875;49.994;14.052;2023-07-31T06:28:31;98107.38;;;17.29;100.00
65276;BME280;51875;49.994;14.052;2023-07-31T06:29:47;98098.00;;;17.38;100.00
65276;BME280;51875;49.994;14.052;2023-07-31T06:31:03;98102.06;;;17.44;100.00
65276;BME280;51875;49.994;14.052;2023-07-31T06:32:18;98110.97;;;17.43;100.00
65276;BME280;51875;49.994;14.052;2023-07-31T06:33:34;98107.75;;;17.38;100.00
65276;BME280;51875;49.994;14.052;2023-07-31T06:34:49;98107.56;;;17.55;100.00
65276;BME280;51875;49.994;14.052;2023-07-31T06:36:05;98110.88;;;17.44;100.00
65276;BME280;51875;49.994;14.052;2023-07-31T06:37:21;98105.47;;;17.31;100.00